createdAt,value
2018-11-26T00:00:44.594Z,22.63
2018-11-26T00:03:47.666Z,23.63
2018-11-26T00:06:50.756Z,22.87
2018-11-26T00:10:04.125Z,24.90
2018-11-26T00:13:07.215Z,21.73
2018-11-26T00:16:10.274Z,23.10
2018-11-26T00:19:13.350Z,22.23
2018-11-26T00:22:16.437Z,22.07
2018-11-26T00:25:19.513Z,22.00
2018-11-26T00:28:22.594Z,19.90
2018-11-26T00:31:25.652Z,20.40
2018-11-26T00:34:28.714Z,18.97
2018-11-26T00:37:31.785Z,19.40
2018-11-26T00:40:34.861Z,18.67
2018-11-26T00:43:37.916Z,17.50
2018-11-26T00:46:40.985Z,17.43
2018-11-26T00:49:44.066Z,18.40
2018-11-26T00:52:47.151Z,19.33
2018-11-26T00:55:50.245Z,20.43
2018-11-26T00:58:53.375Z,20.27
2018-11-26T01:01:56.454Z,18.67
2018-11-26T01:04:59.535Z,20.83
2018-11-26T01:08:02.613Z,18.97
2018-11-26T01:11:06.326Z,18.20
2018-11-26T01:14:09.384Z,18.37
2018-11-26T01:17:12.469Z,20.47
2018-11-26T01:20:15.542Z,18.37
2018-11-26T01:23:18.623Z,19.13
2018-11-26T01:26:21.695Z,21.60
2018-11-26T01:29:24.774Z,21.70
2018-11-26T01:32:27.866Z,20.50
2018-11-26T01:35:30.913Z,22.30
2018-11-26T01:38:33.990Z,23.63
2018-11-26T01:41:37.054Z,22.60
2018-11-26T01:44:40.170Z,20.47
2018-11-26T01:47:43.231Z,19.90
2018-11-26T01:50:46.320Z,18.87
2018-11-26T01:53:49.366Z,18.50
2018-11-26T01:56:52.444Z,18.53
2018-11-26T01:59:55.511Z,16.20
2018-11-26T02:02:58.580Z,18.73
2018-11-26T02:06:01.674Z,17.73
2018-11-26T02:09:05.230Z,18.33
2018-11-26T02:12:08.398Z,17.03
2018-11-26T02:15:24.714Z,16.73
2018-11-26T02:18:27.791Z,13.37
2018-11-26T02:21:30.887Z,16.70
2018-11-26T02:24:34.003Z,14.00
2018-11-26T02:27:37.065Z,15.23
2018-11-26T02:30:40.143Z,14.77
2018-11-26T02:33:43.226Z,16.33
2018-11-26T02:36:46.305Z,14.37
2018-11-26T02:39:49.395Z,13.30
2018-11-26T02:42:52.535Z,14.97
2018-11-26T02:45:55.620Z,14.13
2018-11-26T02:48:58.700Z,10.50
2018-11-26T02:52:01.751Z,13.80
2018-11-26T02:55:05.339Z,13.00
2018-11-26T02:58:08.431Z,11.17
2018-11-26T03:01:11.512Z,14.07
2018-11-26T03:04:15.694Z,10.97
2018-11-26T03:07:18.775Z,12.03
2018-11-26T03:10:22.139Z,11.93
2018-11-26T03:13:25.210Z,13.10
2018-11-26T03:16:28.298Z,12.80
2018-11-26T03:19:31.369Z,11.23
2018-11-26T03:22:34.446Z,12.23
2018-11-26T03:25:37.544Z,10.80
2018-11-26T03:28:40.606Z,12.07
2018-11-26T03:31:43.723Z,10.00
2018-11-26T03:34:46.798Z,12.30
2018-11-26T03:37:49.858Z,10.80
2018-11-26T03:40:53.159Z,14.03
2018-11-26T03:43:56.202Z,11.63
2018-11-26T03:46:59.270Z,12.30
2018-11-26T03:50:02.354Z,13.43
2018-11-26T03:53:06.162Z,12.17
2018-11-26T03:56:09.234Z,11.70
2018-11-26T03:59:12.450Z,11.17
2018-11-26T04:02:15.582Z,11.03
2018-11-26T04:05:18.679Z,13.03
2018-11-26T04:08:21.730Z,9.53
2018-11-26T04:11:24.812Z,11.23
2018-11-26T04:14:27.867Z,11.00
2018-11-26T04:17:30.978Z,11.13
2018-11-26T04:20:34.398Z,11.60
2018-11-26T04:23:37.442Z,12.03
2018-11-26T04:26:40.515Z,11.37
2018-11-26T04:29:43.575Z,11.73
2018-11-26T04:32:46.633Z,11.10
2018-11-26T04:35:49.724Z,10.83
2018-11-26T04:38:52.783Z,13.13
2018-11-26T04:41:55.854Z,10.80
2018-11-26T04:44:58.924Z,12.07
2018-11-26T04:48:02.028Z,11.33
2018-11-26T04:51:05.271Z,12.80
2018-11-26T04:54:08.337Z,11.17
2018-11-26T04:57:11.398Z,14.43
2018-11-26T05:00:15.396Z,12.90
2018-11-26T05:03:18.394Z,13.77
2018-11-26T05:06:21.506Z,14.70
2018-11-26T05:09:24.574Z,13.13
2018-11-26T05:12:27.670Z,15.37
2018-11-26T05:15:30.719Z,12.47
2018-11-26T05:18:33.806Z,15.17
2018-11-26T05:21:36.858Z,13.33
2018-11-26T05:24:39.959Z,16.73
2018-11-26T05:27:43.015Z,15.60
2018-11-26T05:30:46.091Z,16.50
2018-11-26T05:33:49.175Z,17.43
2018-11-26T05:36:52.246Z,12.27
2018-11-26T05:39:55.294Z,19.00
2018-11-26T05:42:58.387Z,16.53
2018-11-26T05:46:01.455Z,16.23
2018-11-26T05:49:04.518Z,18.30
2018-11-26T05:52:07.602Z,16.50
2018-11-26T05:55:13.662Z,16.67
2018-11-26T05:58:16.761Z,17.87
2018-11-26T06:01:19.838Z,17.13
2018-11-26T06:04:22.894Z,18.00
2018-11-26T06:07:25.954Z,18.10
2018-11-26T06:10:29.042Z,17.87
2018-11-26T06:13:32.162Z,17.17
2018-11-26T06:16:36.438Z,18.97
2018-11-26T06:19:39.527Z,17.60
2018-11-26T06:22:43.859Z,19.07
2018-11-26T06:25:47.453Z,18.87
2018-11-26T06:28:50.507Z,20.70
2018-11-26T06:31:53.598Z,19.27
2018-11-26T06:34:56.653Z,19.60
2018-11-26T06:37:59.743Z,19.33
2018-11-26T06:41:02.839Z,19.27
2018-11-26T06:44:06.498Z,18.90
2018-11-26T06:47:09.571Z,20.87
2018-11-26T06:50:13.811Z,18.20
2018-11-26T06:53:16.880Z,16.73
2018-11-26T06:56:19.948Z,21.23
2018-11-26T06:59:23.012Z,19.97
2018-11-26T07:02:26.090Z,19.90
2018-11-26T07:05:29.171Z,19.53
2018-11-26T07:08:32.246Z,16.13
2018-11-26T07:11:35.642Z,18.57
2018-11-26T07:14:38.726Z,22.70
2018-11-26T07:17:41.877Z,19.83
2018-11-26T07:20:44.963Z,17.93
2018-11-26T07:23:48.031Z,22.60
2018-11-26T07:26:51.110Z,17.70
2018-11-26T07:29:54.229Z,21.70
2018-11-26T07:32:57.293Z,19.93
2018-11-26T07:36:00.391Z,19.87
2018-11-26T07:39:03.986Z,20.37
2018-11-26T07:42:07.498Z,21.03
2018-11-26T07:45:12.470Z,19.03
2018-11-26T07:48:15.548Z,20.27
2018-11-26T07:51:18.621Z,19.47
2018-11-26T07:54:21.697Z,19.33
2018-11-26T07:57:24.770Z,20.57
2018-11-26T08:00:27.839Z,22.73
2018-11-26T08:03:30.914Z,17.37
2018-11-26T08:06:34.012Z,20.07
2018-11-26T08:09:37.134Z,19.63
2018-11-26T08:12:40.219Z,20.43
2018-11-26T08:15:49.388Z,17.93
2018-11-26T08:18:52.619Z,21.87
2018-11-26T08:21:55.670Z,21.03
2018-11-26T08:24:58.756Z,20.30
2018-11-26T08:28:01.935Z,20.17
2018-11-26T08:31:05.408Z,19.70
2018-11-26T08:34:08.491Z,17.57
2018-11-26T08:37:16.612Z,18.27
2018-11-26T08:40:25.563Z,19.70
2018-11-26T08:43:34.627Z,20.67
2018-11-26T08:46:43.082Z,19.10
2018-11-26T08:49:46.290Z,18.10
2018-11-26T08:52:49.342Z,22.33
2018-11-26T08:55:52.435Z,16.77
2018-11-26T08:58:55.530Z,19.33
2018-11-26T09:02:00.543Z,22.47
2018-11-26T09:05:08.897Z,17.60
2018-11-26T09:08:11.989Z,17.87
2018-11-26T09:11:15.091Z,18.33
2018-11-26T09:14:18.194Z,19.53
2018-11-26T09:20:48.810Z,16.00
2018-11-26T09:23:51.872Z,15.47
2018-11-26T09:26:55.006Z,14.43
2018-11-26T09:29:58.095Z,13.90
2018-11-26T09:33:01.173Z,15.90
2018-11-26T09:36:04.241Z,18.40
2018-11-26T09:39:10.806Z,19.70
2018-11-26T09:42:13.894Z,17.33
2018-11-26T09:45:17.894Z,18.53
2018-11-26T09:48:20.960Z,20.27
2018-11-26T09:51:24.039Z,18.23
2018-11-26T09:54:27.099Z,18.30
2018-11-26T09:57:30.163Z,17.97
2018-11-26T10:00:33.218Z,21.20
2018-11-26T10:03:36.299Z,18.30
2018-11-26T10:06:41.395Z,18.60
2018-11-26T10:09:44.478Z,18.93
2018-11-26T10:12:47.539Z,18.00
2018-11-26T10:15:50.623Z,18.23
2018-11-26T10:18:53.703Z,16.00
2018-11-26T10:21:56.757Z,17.17
2018-11-26T10:25:05.765Z,20.53
2018-11-26T10:28:02.970Z,16.97
2018-11-26T10:31:06.043Z,16.23
2018-11-26T10:34:09.127Z,17.27
2018-11-26T10:37:12.206Z,16.53
2018-11-26T10:40:18.467Z,17.03
2018-11-26T10:43:21.522Z,15.47
2018-11-26T10:46:24.598Z,17.53
2018-11-26T10:49:27.654Z,14.53
2018-11-26T10:52:30.735Z,17.27
2018-11-26T10:55:34.994Z,16.90
2018-11-26T10:58:38.078Z,17.10
2018-11-26T11:01:44.419Z,16.23
2018-11-26T11:04:47.835Z,18.63
2018-11-26T11:07:50.598Z,20.77
2018-11-26T11:10:53.657Z,25.90
2018-11-26T11:13:56.750Z,31.73
2018-11-26T11:16:59.838Z,29.40
2018-11-26T11:20:03.403Z,29.03
2018-11-26T11:23:07.755Z,30.17
2018-11-26T11:26:10.829Z,28.53
2018-11-26T11:29:13.924Z,32.30
2018-11-26T11:32:17.007Z,30.37
2018-11-26T11:35:20.350Z,24.70
2018-11-26T11:38:23.423Z,26.93
2018-11-26T11:41:26.503Z,27.57
2018-11-26T11:44:29.604Z,28.80
2018-11-26T11:47:32.661Z,24.70
2018-11-26T11:50:35.763Z,28.73
2018-11-26T11:53:38.852Z,29.80
2018-11-26T11:56:41.952Z,30.60
2018-11-26T11:59:45.044Z,32.03
2018-11-26T12:02:48.123Z,27.87
2018-11-26T12:05:51.216Z,26.97
2018-11-26T12:08:54.269Z,29.03
2018-11-26T12:11:57.380Z,32.23
2018-11-26T12:15:00.440Z,28.13
2018-11-26T12:18:03.502Z,29.37
2018-11-26T12:21:06.589Z,27.23
2018-11-26T12:24:09.704Z,28.50
2018-11-26T12:27:12.800Z,27.17
2018-11-26T12:30:17.993Z,28.73
2018-11-26T12:33:21.138Z,27.07
2018-11-26T12:36:24.177Z,26.83
2018-11-26T12:39:27.236Z,26.93
2018-11-26T12:42:30.315Z,27.03
2018-11-26T12:45:34.223Z,27.77
2018-11-26T12:48:37.283Z,28.17
2018-11-26T12:51:40.365Z,28.80
2018-11-26T12:54:43.444Z,27.57
2018-11-26T12:57:47.562Z,30.83
2018-11-26T13:00:50.631Z,34.57
2018-11-26T13:03:53.708Z,32.90
2018-11-26T13:06:56.804Z,28.77
2018-11-26T13:09:59.904Z,32.30
2018-11-26T13:13:02.992Z,30.10
2018-11-26T13:16:06.107Z,29.73
2018-11-26T13:19:09.319Z,29.87
2018-11-26T13:22:12.433Z,32.43
2018-11-26T13:25:18.646Z,30.83
2018-11-26T13:28:21.745Z,31.73
2018-11-26T13:31:24.825Z,27.23
2018-11-26T13:34:27.891Z,28.80
2018-11-26T13:37:30.974Z,25.80
2018-11-26T13:40:34.063Z,28.43
2018-11-26T13:43:37.148Z,25.87
2018-11-26T13:46:40.233Z,27.93
2018-11-26T13:49:43.363Z,27.93
2018-11-26T13:52:46.417Z,26.83
2018-11-26T13:55:49.484Z,24.43
2018-11-26T13:58:52.808Z,24.50
2018-11-26T14:01:55.652Z,25.53
2018-11-26T14:04:58.745Z,28.83
2018-11-26T14:08:01.816Z,25.20
2018-11-26T14:11:04.947Z,24.53
2018-11-26T14:14:08.016Z,23.73
2018-11-26T14:17:11.112Z,28.13
2018-11-26T14:20:15.382Z,26.67
2018-11-26T14:23:18.457Z,26.00
2018-11-26T14:26:21.548Z,21.97
2018-11-26T14:29:24.632Z,28.23
2018-11-26T14:32:27.694Z,21.43
2018-11-26T14:35:30.784Z,23.90
2018-11-26T14:38:33.836Z,20.83
2018-11-26T14:41:36.924Z,20.60
2018-11-26T14:44:40.002Z,19.83
2018-11-26T14:47:43.554Z,22.83
2018-11-26T14:50:46.604Z,22.50
2018-11-26T14:53:49.691Z,22.10
2018-11-26T14:56:52.869Z,24.43
2018-11-26T14:59:56.040Z,24.97
2018-11-26T15:02:59.109Z,24.47
2018-11-26T15:06:02.197Z,26.90
2018-11-26T15:09:08.240Z,25.23
2018-11-26T15:12:11.319Z,23.50
2018-11-26T15:15:15.644Z,23.60
2018-11-26T15:18:18.739Z,25.40
2018-11-26T15:21:21.820Z,20.07
2018-11-26T15:24:24.895Z,22.50
2018-11-26T15:27:28.015Z,22.13
2018-11-26T15:30:31.111Z,19.17
2018-11-26T15:33:34.196Z,21.47
2018-11-26T15:36:37.274Z,21.77
2018-11-26T15:39:40.356Z,28.90
2018-11-26T15:42:43.468Z,18.77
2018-11-26T15:45:46.526Z,22.50
2018-11-26T15:48:49.606Z,18.63
2018-11-26T15:51:52.659Z,17.87
2018-11-26T15:54:55.746Z,16.83
2018-11-26T15:57:58.796Z,18.93
2018-11-26T16:01:01.863Z,21.63
2018-11-26T16:04:05.357Z,17.07
2018-11-26T16:07:08.453Z,16.03
2018-11-26T16:10:13.503Z,16.30
2018-11-26T16:13:16.676Z,15.30
2018-11-26T16:16:19.756Z,15.60
2018-11-26T16:19:22.856Z,15.17
2018-11-26T16:22:25.955Z,15.60
2018-11-26T16:25:29.044Z,17.57
2018-11-26T16:28:32.096Z,16.10
2018-11-26T16:31:35.176Z,15.47
2018-11-26T16:34:38.229Z,16.57
2018-11-26T16:37:41.308Z,17.43
2018-11-26T16:40:44.363Z,16.10
2018-11-26T16:43:47.460Z,16.00
2018-11-26T16:46:50.563Z,16.93
2018-11-26T16:49:53.639Z,17.53
2018-11-26T16:52:56.777Z,16.27
2018-11-26T16:55:59.835Z,17.73
2018-11-26T16:59:02.900Z,16.53
2018-11-26T17:02:05.956Z,19.27
2018-11-26T17:05:11.900Z,19.83
2018-11-26T17:08:15.640Z,16.87
2018-11-26T17:11:18.716Z,22.30
2018-11-26T17:14:21.780Z,23.93
2018-11-26T17:17:24.843Z,20.23
2018-11-26T17:20:27.983Z,24.17
2018-11-26T17:23:31.064Z,23.23
2018-11-26T17:26:34.127Z,25.37
2018-11-26T17:29:37.212Z,28.07
2018-11-26T17:32:40.541Z,26.40
2018-11-26T17:35:43.652Z,24.90
2018-11-26T17:38:46.721Z,28.30
2018-11-26T17:41:50.540Z,32.43
2018-11-26T17:44:53.623Z,26.37
2018-11-26T17:47:57.810Z,27.53
2018-11-26T17:51:00.903Z,26.43
2018-11-26T17:54:03.983Z,26.10
2018-11-26T17:57:07.040Z,26.67
2018-11-26T18:00:13.788Z,24.77
2018-11-26T18:03:17.084Z,27.63
2018-11-26T18:06:20.143Z,26.40
2018-11-26T18:09:23.240Z,27.37
2018-11-26T18:12:26.289Z,25.07
2018-11-26T18:15:29.383Z,27.80
2018-11-26T18:18:32.474Z,24.10
2018-11-26T18:21:35.565Z,24.07
2018-11-26T18:24:38.636Z,26.17
2018-11-26T18:27:46.943Z,23.27
2018-11-26T18:30:51.163Z,22.10
2018-11-26T18:33:54.255Z,23.67
2018-11-26T18:36:57.392Z,23.23
2018-11-26T18:40:00.487Z,24.40
2018-11-26T18:43:03.576Z,22.57
2018-11-26T18:46:06.660Z,26.90
2018-11-26T18:49:09.729Z,23.70
2018-11-26T18:52:12.808Z,23.77
2018-11-26T18:55:15.916Z,21.97
2018-11-26T18:58:19.020Z,22.20
2018-11-26T19:01:22.075Z,22.33
2018-11-26T19:04:25.165Z,19.97
2018-11-26T19:07:28.288Z,21.30
2018-11-26T19:10:33.179Z,20.57
2018-11-26T19:14:00.063Z,25.03
2018-11-26T19:17:03.109Z,24.70
2018-11-26T19:20:18.779Z,26.60
2018-11-26T19:23:22.282Z,25.33
2018-11-26T19:26:25.848Z,26.33
2018-11-26T19:29:28.468Z,28.27
2018-11-26T19:32:31.536Z,27.77
2018-11-26T19:35:34.628Z,27.00
2018-11-26T19:38:37.703Z,25.93
2018-11-26T19:41:40.804Z,27.40
2018-11-26T19:44:43.884Z,22.13
2018-11-26T19:47:47.093Z,24.37
2018-11-26T19:50:50.180Z,26.20
2018-11-26T19:53:53.275Z,23.30
2018-11-26T19:56:56.357Z,21.53
2018-11-26T19:59:59.449Z,23.20
2018-11-26T20:03:21.280Z,23.30
2018-11-26T20:06:25.167Z,23.43
2018-11-26T20:09:28.339Z,25.10
2018-11-26T20:12:31.412Z,25.90
2018-11-26T20:15:34.479Z,23.37
2018-11-26T20:18:37.567Z,27.73
2018-11-26T20:21:40.648Z,26.13
2018-11-26T20:24:43.755Z,22.13
2018-11-26T20:27:46.799Z,28.30
2018-11-26T20:30:49.916Z,26.63
2018-11-26T20:33:52.992Z,23.57
2018-11-26T20:36:56.096Z,25.87
2018-11-26T20:39:59.240Z,24.97
2018-11-26T20:43:02.359Z,24.03
2018-11-26T20:46:05.611Z,25.63
2018-11-26T20:49:09.268Z,24.07
2018-11-26T20:52:12.340Z,24.87
2018-11-26T20:55:19.731Z,24.87
2018-11-26T20:58:22.844Z,25.90
2018-11-26T21:01:25.949Z,22.13
2018-11-26T21:04:29.061Z,22.27
2018-11-26T21:07:32.124Z,23.93
2018-11-26T21:10:35.409Z,23.80
2018-11-26T21:13:38.640Z,21.90
2018-11-26T21:16:41.762Z,23.37
2018-11-26T21:19:49.609Z,24.93
2018-11-26T21:22:48.987Z,29.57
2018-11-26T21:25:52.455Z,26.13
2018-11-26T21:28:55.535Z,23.60
2018-11-26T21:31:58.624Z,26.33
2018-11-26T21:35:01.702Z,20.30
2018-11-26T21:38:05.906Z,23.90
2018-11-26T21:41:08.975Z,24.73
2018-11-26T21:44:12.072Z,26.20
2018-11-26T21:47:15.153Z,25.67
2018-11-26T21:50:18.239Z,27.73
2018-11-26T21:53:21.301Z,27.97
2018-11-26T21:56:24.803Z,29.47
2018-11-26T21:59:27.892Z,27.37
2018-11-26T22:02:30.970Z,25.30
2018-11-26T22:05:34.690Z,28.03
2018-11-26T22:08:38.391Z,28.37
2018-11-26T22:11:45.635Z,29.80
2018-11-26T22:14:48.711Z,24.80
2018-11-26T22:17:51.852Z,26.80
2018-11-26T22:20:54.908Z,28.77
2018-11-26T22:23:58.051Z,26.03
2018-11-26T22:27:01.054Z,28.07
2018-11-26T22:30:08.081Z,28.60
2018-11-26T22:33:11.199Z,22.77
2018-11-26T22:36:14.288Z,25.37
2018-11-26T22:39:17.396Z,26.27
2018-11-26T22:42:20.479Z,22.20
2018-11-26T22:45:25.430Z,22.80
2018-11-26T22:48:28.522Z,25.87
2018-11-26T22:51:31.620Z,24.77
2018-11-26T22:54:34.699Z,22.63
2018-11-26T22:57:37.756Z,21.57
2018-11-26T23:00:45.628Z,22.70
2018-11-26T23:03:48.695Z,24.67
2018-11-26T23:06:51.779Z,24.70
2018-11-26T23:09:54.844Z,24.83
2018-11-26T23:12:58.009Z,21.73
2018-11-26T23:16:01.084Z,24.57
2018-11-26T23:19:04.227Z,22.57
2018-11-26T23:22:07.343Z,23.10
2018-11-26T23:25:11.496Z,23.93
2018-11-26T23:28:14.593Z,27.70
2018-11-26T23:31:17.652Z,24.87
2018-11-26T23:34:20.719Z,25.70
2018-11-26T23:37:23.802Z,25.87
2018-11-26T23:40:26.863Z,24.30
2018-11-26T23:43:29.967Z,21.63
2018-11-26T23:46:33.070Z,26.47
2018-11-26T23:49:36.139Z,25.60
2018-11-26T23:52:39.657Z,31.73
2018-11-26T23:55:42.776Z,25.37
2018-11-26T23:58:45.835Z,28.60
